This is the latest recevied weather packets stored in our database for station/object vk4vs. If no packets are shown the sender has not sent any weather packets the latest 10 day(s).
| Time | Temp. | Humidity | Pressure | Rain* | Wind** | Luminosity | Snow |
|---|---|---|---|---|---|---|---|
| 1777829453 | 12.22° C | 98% | 1018 hPa | 0 mm | - | - | - |
| 1777827654 | 12.22° C | 98% | 1018.1 hPa | 0 mm | - | - | - |
| 1777825853 | 12.22° C | 97% | 1018.3 hPa | 0 mm | - | - | - |
| 1777824053 | 12.22° C | 97% | 1018.8 hPa | 0 mm | - | - | - |
| 1777822253 | 11.67° C | 97% | 1019.2 hPa | 0 mm | - | - | - |
| 1777818653 | 12.22° C | 96% | 1019.4 hPa | 0 mm | - | - | - |
| 1777816853 | 12.22° C | 96% | 1019.9 hPa | 0 mm | - | - | - |
| 1777815054 | 13.33° C | 96% | 1020.2 hPa | 0 mm | - | - | - |
| 1777813253 | 13.89° C | 96% | 1020.3 hPa | 0 mm | - | - | - |
| 1777811453 | 13.89° C | 96% | 1020.5 hPa | 0 mm | - | - | - |
| 1777809654 | 13.89° C | 96% | 1020.5 hPa | 0 mm | - | - | - |
| 1777807854 | 13.89° C | 96% | 1020.6 hPa | 0 mm | - | - | - |
| 1777806054 | 13.89° C | 96% | 1020.5 hPa | 0 mm | - | - | - |
| 1777804253 | 13.89° C | 96% | 1020.5 hPa | 0 mm | - | - | - |
| 1777802453 | 13.89° C | 95% | 1020.3 hPa | 0 mm | - | - | - |
| 1777800654 | 13.89° C | 94% | 1020 hPa | 0 mm | - | - | - |
| 1777798853 | 13.89° C | 92% | 1019.9 hPa | 0 mm | - | - | - |
| 1777797053 | 14.44° C | 90% | 1019.7 hPa | 0 mm | - | - | - |
| 1777795253 | 15° C | 88% | 1019.4 hPa | 0 mm | - | - | - |
| 1777793453 | 15.56° C | 84% | 1019.3 hPa | 0 mm | - | - | - |
| 1777791653 | 16.67° C | 80% | 1019.3 hPa | 0 mm | - | - | - |
| 1777789854 | 17.22° C | 77% | 1019.2 hPa | 0 mm | - | - | - |
| 1777788053 | 18.33° C | 74% | 1019 hPa | 0 mm | - | - | - |
| 1777786253 | 18.89° C | 70% | 1019.1 hPa | 0 mm | - | - | - |
| 1777784454 | 18.89° C | 71% | 1019.2 hPa | 0 mm | - | - | - |
* Rain latest hour (hover to see other rain measurements)
** Current wind speed in m/s (hover to see current wind gust speed)